Portada
METAR-TAF:

METAR-TAF

Aeropuertos :

Sanliurfa, Turquía

latitud: 37-27N, longitud: 38-54E, altitud: 823 m

Observación

El informe se hizo hace 27 minutos, a las 22:50 UTC
Viento 13 kt del este
Temperatura 28°C
Humedad 27%
Presión 1006 hPa
Visibilidad 10 km o más
sin nubes por debajo de 1500 m y sin presencia de cumulonimbus.

METAR: LTCS 212250Z 08013KT CAVOK 28/07 Q1006 RMK RWY22 05011KT 4CI200

Hora: 02:17 (23:17 UTC)

Pronóstico

El informe se hizo hace 6 horas y 37 minutos, a las 16:40 UTC
Pronóstico válido del 21 a las 18 UTC al 22 a las 18 UTC
Viento 12 kt del norte
Visibilidad 10 km o más
sin nubes por debajo de 1500 m y sin presencia de cumulonimbus.
Evolucionando progresivamente
del 22 a las 09 UTC al 22 a las 12 UTC
Viento 12 kt del sur-suroeste

TAF: LTCS 211640Z 2118/2218 35012KT CAVOK BECMG 2209/2212 20012KT

Observaciones y pronósticos meteorológicos de más de 4000 aeropuertos (mensajes METAR y TAF).

Los puntos amarillos y rojos representan las estaciones disponibles.

Ponga el ratón en el punto deseado para ver el nombre de la estación.

Haga clic para ver las observaciones y los pronósticos meteorológicos.

Para cambiar el mapa : haga clic en los botones verdes con una cruz de color negro para hacer un zoom, en el botón verde con un guión para alejar o en las flechas verdes para mapas adyacentes.


METAR-TAF: